Time;durP1;ratioP1;P1;durP2;ratioP2;P2;SDS_P1;SDS_P2;PMS_P1;PMS_P2;Temp;Humidity;BMP_temperature;BMP_pressure;BME280_temperature;BME280_humidity;BME280_pressure;Samples;Min_cycle;Max_cycle;Signal;HPM_P1;HPM_P2
2023/06/13 00:02:17;;;;;;;14.00;13.30;;;19.30;64.30;;;;;;4946251;29;20455;-74
2023/06/13 00:04:45;;;;;;;15.40;14.40;;;19.30;64.10;;;;;;4944913;29;20481;-75
2023/06/13 00:07:12;;;;;;;15.00;14.10;;;19.30;64.30;;;;;;4944321;29;20818;-76
2023/06/13 00:09:39;;;;;;;14.90;14.10;;;19.30;64.80;;;;;;4944466;29;20442;-77
2023/06/13 00:12:09;;;;;;;13.83;13.20;;;19.10;65.40;;;;;;4944897;28;20480;-77
2023/06/13 00:14:37;;;;;;;15.00;14.13;;;19.00;66.30;;;;;;4945827;29;20440;-77
2023/06/13 00:17:04;;;;;;;15.13;14.33;;;18.90;67.10;;;;;;4944511;28;20513;-77
2023/06/13 00:19:31;;;;;;;14.20;13.50;;;18.70;67.60;;;;;;4944044;29;20481;-77
2023/06/13 00:21:58;;;;;;;14.90;14.10;;;18.60;69.20;;;;;;4943860;29;20479;-76
2023/06/13 00:24:25;;;;;;;13.83;13.13;;;18.50;70.30;;;;;;4944676;29;20480;-76
2023/06/13 00:26:52;;;;;;;14.97;14.07;;;18.40;71.00;;;;;;4945458;29;20485;-77
2023/06/13 00:29:19;;;;;;;15.63;14.63;;;18.20;71.90;;;;;;4943788;29;20668;-77
2023/06/13 00:31:48;;;;;;;14.73;13.93;;;18.10;73.80;;;;;;4944425;29;20943;-77
2023/06/13 00:34:16;;;;;;;14.83;14.03;;;18.00;74.10;;;;;;4945399;29;20441;-76
2023/06/13 00:36:43;;;;;;;14.80;14.00;;;18.00;75.40;;;;;;4944360;29;20473;-76
2023/06/13 00:39:11;;;;;;;14.33;13.63;;;18.00;75.60;;;;;;4943895;29;20456;-76
2023/06/13 00:41:38;;;;;;;13.77;12.97;;;17.90;76.00;;;;;;4943430;29;20882;-76
2023/06/13 00:44:05;;;;;;;13.97;13.13;;;18.00;75.90;;;;;;4944251;29;20437;-76
2023/06/13 00:46:34;;;;;;;13.80;13.10;;;18.30;75.30;;;;;;4945218;29;20481;-77
2023/06/13 00:49:05;;;;;;;13.33;12.63;;;18.40;74.70;;;;;;4943734;29;20449;-77
2023/06/13 00:51:35;;;;;;;13.50;12.70;;;18.50;74.40;;;;;;4943271;29;20955;-77
2023/06/13 00:54:03;;;;;;;12.93;12.30;;;18.50;74.20;;;;;;4944566;29;20981;-75
2023/06/13 00:56:31;;;;;;;13.30;12.70;;;18.60;74.30;;;;;;4944976;29;20457;-76
2023/06/13 03:51:00;;;;;;;12.50;11.90;;;16.10;92.30;;;;;;5740263;23;20479;-77
2023/06/13 03:53:27;;;;;;;12.53;11.83;;;16.00;92.80;;;;;;4952315;28;20500;-79
2023/06/13 03:55:53;;;;;;;12.83;12.23;;;16.10;93.10;;;;;;4955039;29;20445;-75
2023/06/13 03:58:20;;;;;;;13.90;13.00;;;16.10;93.10;;;;;;4954675;29;20455;-75
2023/06/13 04:00:47;;;;;;;13.13;12.33;;;16.10;93.10;;;;;;4954449;29;20440;-75
2023/06/13 04:03:13;;;;;;;13.23;12.63;;;16.10;92.40;;;;;;4954321;29;20463;-74
2023/06/13 04:05:40;;;;;;;13.50;12.77;;;16.10;92.60;;;;;;4954726;29;20575;-75
2023/06/13 04:08:08;;;;;;;14.33;13.40;;;16.20;92.30;;;;;;4954837;29;20483;-75
2023/06/13 04:10:35;;;;;;;13.27;12.57;;;16.20;92.30;;;;;;4954792;29;20455;-77
2023/06/13 04:13:01;;;;;;;14.67;13.93;;;16.20;92.70;;;;;;4954805;29;20445;-76
2023/06/13 04:15:28;;;;;;;14.50;13.80;;;16.10;92.30;;;;;;4954486;29;20436;-75
2023/06/13 04:17:55;;;;;;;13.40;12.63;;;16.20;92.50;;;;;;4954375;29;20453;-75
2023/06/13 04:20:23;;;;;;;14.83;13.77;;;16.20;92.70;;;;;;4954856;29;20441;-76
2023/06/13 04:22:52;;;;;;;15.13;13.70;;;16.30;92.70;;;;;;4954655;29;20453;-75
2023/06/13 04:25:20;;;;;;;14.67;13.87;;;16.90;91.60;;;;;;4954416;29;20528;-74
2023/06/13 04:27:48;;;;;;;13.90;13.10;;;17.50;90.40;;;;;;4954304;29;20463;-74
2023/06/13 04:30:15;;;;;;;13.40;12.70;;;18.20;88.50;;;;;;4954297;29;20457;-74
2023/06/13 04:32:45;;;;;;;14.50;13.50;;;18.90;84.30;;;;;;4954473;28;20484;-73
2023/06/13 04:35:16;;;;;;;14.27;13.47;;;19.40;81.00;;;;;;4951763;29;20461;-75
2023/06/13 04:37:43;;;;;;;13.63;12.93;;;20.00;79.40;;;;;;4954502;29;20459;-74
2023/06/13 04:40:13;;;;;;;14.37;13.60;;;20.20;76.60;;;;;;4955247;28;20484;-74
2023/06/13 04:42:47;;;;;;;13.90;13.30;;;20.50;75.60;;;;;;4954984;28;20539;-73
2023/06/13 04:45:15;;;;;;;15.17;14.10;;;20.80;73.90;;;;;;4954657;29;20936;-75
2023/06/13 04:47:45;;;;;;;14.67;13.97;;;21.00;72.80;;;;;;4954880;29;20519;-78
2023/06/13 04:50:12;;;;;;;14.03;13.30;;;21.10;71.50;;;;;;4954547;29;20804;-78
2023/06/13 04:52:41;;;;;;;13.90;13.20;;;21.40;70.80;;;;;;4954639;28;20488;-77
2023/06/13 04:55:08;;;;;;;14.27;13.40;;;21.80;69.70;;;;;;4954575;28;20456;-75
2023/06/13 04:57:35;;;;;;;14.03;13.30;;;21.90;67.20;;;;;;4954521;28;20464;-75
2023/06/13 05:00:06;;;;;;;14.03;13.20;;;22.10;67.00;;;;;;4954493;28;20459;-75
2023/06/13 05:02:34;;;;;;;13.67;12.87;;;22.40;66.30;;;;;;4954651;28;20452;-75
2023/06/13 05:05:02;;;;;;;13.73;13.17;;;22.60;65.70;;;;;;4953492;28;20819;-75
2023/06/13 05:07:30;;;;;;;13.63;13.03;;;22.50;64.20;;;;;;4954416;28;20501;-75
2023/06/13 05:09:56;;;;;;;13.70;13.00;;;22.30;63.30;;;;;;4954430;28;20503;-74
2023/06/13 05:12:23;;;;;;;14.47;13.47;;;22.40;64.90;;;;;;4954491;28;20460;-74
2023/06/13 05:14:50;;;;;;;14.20;13.40;;;22.70;64.40;;;;;;4954698;28;20452;-76
2023/06/13 05:17:18;;;;;;;13.43;12.83;;;23.00;62.20;;;;;;4954391;28;20820;-74
2023/06/13 05:19:45;;;;;;;13.47;12.87;;;23.00;60.20;;;;;;4953964;28;20461;-75
2023/06/13 05:22:11;;;;;;;13.80;12.87;;;22.80;59.20;;;;;;4954314;28;20448;-75
2023/06/13 05:24:38;;;;;;;13.83;12.93;;;21.80;60.50;;;;;;4954242;28;20463;-74
2023/06/13 05:27:05;;;;;;;13.20;12.60;;;21.20;61.10;;;;;;4954135;28;20488;-79
2023/06/13 05:29:32;;;;;;;13.10;12.40;;;21.20;62.80;;;;;;4954063;28;20527;-76
2023/06/13 05:31:59;;;;;;;13.90;13.30;;;21.50;61.70;;;;;;4954172;28;20467;-76
2023/06/13 05:34:27;;;;;;;11.37;10.97;;;21.80;61.40;;;;;;4954088;28;20512;-78
2023/06/13 05:36:54;;;;;;;12.93;12.23;;;21.90;60.20;;;;;;4952409;28;21505;-83
2023/06/13 05:39:21;;;;;;;13.20;12.60;;;22.00;59.80;;;;;;4952331;28;20483;-79
2023/06/13 05:41:47;;;;;;;12.93;12.13;;;22.40;59.20;;;;;;4953264;28;20465;-78
2023/06/13 05:44:14;;;;;;;13.03;12.53;;;22.80;57.10;;;;;;4953560;28;20464;-78
2023/06/13 05:46:41;;;;;;;13.90;13.00;;;23.00;57.10;;;;;;4953335;28;20488;-81
2023/06/13 05:49:08;;;;;;;14.40;13.70;;;23.10;55.60;;;;;;4953649;28;20873;-81
2023/06/13 05:51:36;;;;;;;12.90;12.30;;;23.00;55.90;;;;;;4953114;28;20484;-80
2023/06/13 05:54:03;;;;;;;13.60;12.70;;;23.00;55.10;;;;;;4953413;28;20468;-80
2023/06/13 05:56:31;;;;;;;14.30;13.67;;;23.50;55.20;;;;;;4952733;28;20551;-82
2023/06/13 05:58:58;;;;;;;13.57;12.97;;;23.60;54.30;;;;;;4953143;28;20452;-83
2023/06/13 06:01:25;;;;;;;12.60;12.10;;;23.40;53.40;;;;;;4953075;28;20471;-81
2023/06/13 06:03:51;;;;;;;14.07;13.10;;;23.10;54.40;;;;;;4953268;28;20452;-80
2023/06/13 06:06:18;;;;;;;14.40;13.70;;;23.00;53.70;;;;;;4953028;28;20488;-81
2023/06/13 06:08:46;;;;;;;14.53;13.83;;;22.50;53.30;;;;;;4953169;28;20467;-81
2023/06/13 06:11:13;;;;;;;13.87;13.27;;;22.30;54.20;;;;;;4952755;28;20830;-80
2023/06/13 06:13:39;;;;;;;14.67;13.80;;;22.20;54.40;;;;;;4952857;28;20453;-79
2023/06/13 06:16:06;;;;;;;13.43;12.67;;;22.20;55.30;;;;;;4952657;28;20464;-80
2023/06/13 06:18:33;;;;;;;14.30;13.43;;;22.40;54.30;;;;;;4952694;28;20497;-79
2023/06/13 06:21:02;;;;;;;14.00;13.20;;;22.40;53.50;;;;;;4952234;28;20582;-75
2023/06/13 06:23:28;;;;;;;15.20;14.50;;;22.80;53.50;;;;;;4946750;28;20476;-78
2023/06/13 06:25:56;;;;;;;14.70;14.00;;;23.00;52.30;;;;;;4952021;28;20518;-79
2023/06/13 06:28:23;;;;;;;14.40;13.80;;;22.60;52.20;;;;;;4952280;28;20467;-78
2023/06/13 06:30:50;;;;;;;13.90;13.30;;;22.50;52.50;;;;;;4952560;28;20451;-81
2023/06/13 06:33:16;;;;;;;14.40;13.50;;;22.50;52.80;;;;;;4952687;28;20463;-79
2023/06/13 06:35:43;;;;;;;14.07;13.47;;;22.20;52.30;;;;;;4943906;28;20457;-79
2023/06/13 06:38:10;;;;;;;14.33;13.53;;;22.40;52.70;;;;;;4941981;29;20449;-79
2023/06/13 06:40:36;;;;;;;13.23;12.63;;;22.30;51.80;;;;;;4942606;28;20449;-78
2023/06/13 06:43:04;;;;;;;14.60;13.70;;;21.90;52.20;;;;;;4943329;29;20453;-77
2023/06/13 06:45:31;;;;;;;14.97;14.07;;;22.30;52.50;;;;;;4941744;29;20559;-79
2023/06/13 06:47:58;;;;;;;14.60;13.70;;;22.40;52.00;;;;;;4941954;28;20495;-79
2023/06/13 06:50:25;;;;;;;14.53;13.60;;;22.90;51.70;;;;;;4942999;29;20475;-79
2023/06/13 06:52:52;;;;;;;13.93;13.20;;;23.00;50.50;;;;;;4941825;29;20476;-78
2023/06/13 06:55:19;;;;;;;14.67;14.07;;;23.30;51.10;;;;;;4941354;28;20444;-78
2023/06/13 06:57:45;;;;;;;15.00;14.10;;;22.90;50.80;;;;;;4942762;29;20437;-79
2023/06/13 07:00:15;;;;;;;14.90;14.10;;;22.70;50.90;;;;;;4940679;29;20445;-80
2023/06/13 07:02:42;;;;;;;15.77;14.77;;;22.90;50.90;;;;;;4940428;28;20449;-79
2023/06/13 07:05:09;;;;;;;15.53;14.43;;;22.90;50.90;;;;;;4937834;29;20449;-78
2023/06/13 07:07:36;;;;;;;14.53;13.93;;;23.00;50.30;;;;;;4941225;28;20477;-79
2023/06/13 07:10:03;;;;;;;15.00;14.27;;;22.70;50.20;;;;;;4942074;29;20452;-79
2023/06/13 07:12:32;;;;;;;14.67;14.00;;;22.90;49.80;;;;;;4937902;29;21120;-77
2023/06/13 07:14:58;;;;;;;14.43;13.87;;;22.50;50.60;;;;;;4940464;28;20830;-85
2023/06/13 07:17:26;;;;;;;15.83;14.73;;;22.70;49.90;;;;;;4932197;29;20491;-75
2023/06/13 07:19:53;;;;;;;15.43;14.50;;;23.00;49.80;;;;;;4931943;29;20454;-75
2023/06/13 07:22:20;;;;;;;15.50;14.80;;;23.40;49.70;;;;;;4931948;29;20481;-76
2023/06/13 07:24:46;;;;;;;16.30;15.20;;;24.20;48.90;;;;;;4934821;29;20564;-76
2023/06/13 07:27:13;;;;;;;15.37;14.60;;;23.90;48.40;;;;;;4942380;28;20488;-76
2023/06/13 07:29:40;;;;;;;15.53;14.83;;;23.90;49.00;;;;;;4945757;29;20452;-76
2023/06/13 07:32:07;;;;;;;15.40;14.80;;;23.60;47.80;;;;;;4949867;29;20480;-77
2023/06/13 07:34:35;;;;;;;15.23;14.60;;;23.40;48.80;;;;;;4955006;28;20463;-78
2023/06/13 07:37:03;;;;;;;15.30;14.60;;;23.90;48.90;;;;;;4954869;28;20456;-78
2023/06/13 07:39:30;;;;;;;13.77;13.27;;;24.20;49.00;;;;;;4954807;28;20469;-77
2023/06/13 07:41:56;;;;;;;15.30;14.60;;;25.00;47.80;;;;;;4952967;28;20471;-76
2023/06/13 07:44:23;;;;;;;15.33;14.73;;;25.30;47.20;;;;;;4954068;28;20460;-75
2023/06/13 07:46:50;;;;;;;16.20;14.80;;;25.70;46.10;;;;;;4954153;28;20867;-76
2023/06/13 07:49:16;;;;;;;16.10;15.40;;;25.10;45.00;;;;;;4954124;28;20886;-76
2023/06/13 07:51:44;;;;;;;15.47;14.67;;;24.80;45.20;;;;;;4954346;28;20496;-77
2023/06/13 07:54:11;;;;;;;15.67;14.70;;;24.50;45.70;;;;;;4954372;28;20441;-76
2023/06/13 07:56:37;;;;;;;16.13;15.33;;;24.70;45.60;;;;;;4954727;28;20447;-77
2023/06/13 07:59:04;;;;;;;15.03;14.23;;;24.50;45.00;;;;;;4954207;28;20467;-77
2023/06/13 08:01:31;;;;;;;15.27;14.47;;;24.50;45.20;;;;;;4953925;28;20487;-75
2023/06/13 08:03:57;;;;;;;15.47;14.67;;;24.50;45.20;;;;;;4954082;28;20459;-75
2023/06/13 08:06:24;;;;;;;14.80;14.00;;;24.40;45.20;;;;;;4954250;28;20496;-77
2023/06/13 08:08:52;;;;;;;15.70;15.00;;;24.70;44.50;;;;;;4954200;28;20464;-77
2023/06/13 08:11:19;;;;;;;15.30;14.50;;;25.20;45.20;;;;;;4953922;28;20456;-75
2023/06/13 08:13:46;;;;;;;14.80;14.23;;;25.80;44.00;;;;;;4954029;28;20477;-75
2023/06/13 08:16:12;;;;;;;15.33;14.33;;;26.30;43.10;;;;;;4953614;28;20826;-75
2023/06/13 08:18:39;;;;;;;16.27;15.37;;;26.50;43.30;;;;;;4953843;28;20972;-74
2023/06/13 08:21:06;;;;;;;15.37;14.57;;;26.40;43.40;;;;;;4953611;28;20981;-75
2023/06/13 08:23:32;;;;;;;15.10;14.30;;;26.80;43.50;;;;;;4953820;28;20908;-76
2023/06/13 08:26:00;;;;;;;16.13;15.33;;;27.40;43.00;;;;;;4953662;28;20461;-75
2023/06/13 08:28:27;;;;;;;15.97;15.27;;;27.50;42.70;;;;;;4953888;28;20484;-74
2023/06/13 08:30:54;;;;;;;15.50;14.90;;;27.50;42.90;;;;;;4953738;28;20476;-76
2023/06/13 08:33:21;;;;;;;16.27;15.20;;;26.90;42.70;;;;;;4953785;28;20548;-75
2023/06/13 08:35:47;;;;;;;16.07;15.13;;;26.50;43.60;;;;;;4953476;28;20467;-75
2023/06/13 08:38:14;;;;;;;15.33;14.50;;;26.40;43.90;;;;;;4953272;28;20460;-76
2023/06/13 08:40:41;;;;;;;15.60;14.90;;;26.80;42.90;;;;;;4953578;28;20460;-75
2023/06/13 08:43:09;;;;;;;15.50;14.80;;;26.80;42.30;;;;;;4953480;28;20495;-75
2023/06/13 08:45:36;;;;;;;15.93;14.97;;;26.70;42.20;;;;;;4953404;28;20495;-75
2023/06/13 08:48:03;;;;;;;16.60;15.60;;;27.10;41.20;;;;;;4953390;28;20497;-75
2023/06/13 08:50:30;;;;;;;15.70;14.90;;;27.00;41.60;;;;;;4953006;28;20476;-75
2023/06/13 08:53:00;;;;;;;15.30;14.60;;;27.10;40.90;;;;;;4953517;28;20571;-75
2023/06/13 08:55:30;;;;;;;15.47;14.77;;;26.90;40.50;;;;;;4953407;28;20452;-76
2023/06/13 08:57:59;;;;;;;15.23;14.60;;;26.90;40.40;;;;;;4953118;28;20483;-76
2023/06/13 09:00:28;;;;;;;14.60;13.83;;;26.90;41.00;;;;;;4953064;28;20456;-76
2023/06/13 09:02:55;;;;;;;16.17;15.13;;;26.90;39.20;;;;;;4953455;28;20564;-76
2023/06/13 09:05:23;;;;;;;15.30;14.50;;;26.90;39.80;;;;;;4953167;28;20978;-75
2023/06/13 09:07:51;;;;;;;16.20;15.40;;;26.90;41.00;;;;;;4952910;28;20644;-75
2023/06/13 09:10:19;;;;;;;16.13;15.10;;;26.70;41.70;;;;;;4952995;28;20448;-75
2023/06/13 09:12:49;;;;;;;15.23;14.60;;;27.00;41.70;;;;;;4952993;28;20487;-75
2023/06/13 09:15:16;;;;;;;17.00;16.10;;;27.10;41.80;;;;;;4952993;28;20472;-75
2023/06/13 09:17:44;;;;;;;16.33;15.37;;;27.40;41.30;;;;;;4952692;28;20823;-75
2023/06/13 09:20:11;;;;;;;16.13;15.23;;;27.60;41.60;;;;;;4952709;28;20515;-76
2023/06/13 09:22:38;;;;;;;16.37;15.50;;;27.60;40.60;;;;;;4953227;28;20559;-75
2023/06/13 09:25:08;;;;;;;16.73;15.93;;;27.80;40.90;;;;;;4953266;28;20919;-76
2023/06/13 09:27:34;;;;;;;16.43;15.60;;;28.40;40.00;;;;;;4952987;28;20510;-76
2023/06/13 09:30:01;;;;;;;17.00;16.00;;;28.00;39.00;;;;;;4952696;28;20464;-75
2023/06/13 09:32:28;;;;;;;15.83;15.13;;;28.30;39.00;;;;;;4952458;28;20460;-75
2023/06/13 09:34:57;;;;;;;17.07;16.10;;;28.00;37.50;;;;;;4952732;28;20453;-75
2023/06/13 09:37:26;;;;;;;16.03;15.13;;;27.60;38.20;;;;;;4952560;28;20456;-76
2023/06/13 09:39:53;;;;;;;14.70;14.10;;;27.60;39.50;;;;;;4952485;28;20456;-75
2023/06/13 09:42:23;;;;;;;16.07;15.27;;;27.80;39.70;;;;;;4952442;28;20917;-76
2023/06/13 09:44:51;;;;;;;15.97;15.10;;;28.40;39.60;;;;;;4952495;28;20456;-76
2023/06/13 09:47:22;;;;;;;16.07;15.17;;;28.80;38.40;;;;;;4952365;28;20492;-75
2023/06/13 09:49:52;;;;;;;16.90;16.00;;;28.00;38.20;;;;;;4951730;28;20766;-75
2023/06/13 09:52:23;;;;;;;15.57;14.77;;;28.20;37.70;;;;;;4952077;28;20476;-76
2023/06/13 09:54:50;;;;;;;16.73;16.03;;;28.30;37.30;;;;;;4952418;28;20516;-75
2023/06/13 09:57:17;;;;;;;16.20;15.40;;;28.00;37.60;;;;;;4951901;28;20930;-75
2023/06/13 09:59:46;;;;;;;16.87;16.07;;;28.60;37.30;;;;;;4951879;28;20456;-75
2023/06/13 10:02:13;;;;;;;15.83;15.20;;;29.60;36.90;;;;;;4951821;28;20452;-75
2023/06/13 10:04:40;;;;;;;16.80;16.10;;;29.70;36.30;;;;;;4951888;28;20464;-75
2023/06/13 10:07:07;;;;;;;24.43;17.33;;;29.20;36.00;;;;;;4951895;28;20495;-74
2023/06/13 10:09:35;;;;;;;16.47;15.57;;;28.60;36.90;;;;;;4951718;28;20612;-75
2023/06/13 10:12:07;;;;;;;15.90;15.20;;;28.60;36.70;;;;;;4951967;28;20527;-76
2023/06/13 10:14:39;;;;;;;15.83;15.23;;;28.40;37.20;;;;;;4951706;28;20464;-75
2023/06/13 10:17:11;;;;;;;16.70;15.80;;;28.40;37.60;;;;;;4951866;28;20958;-75
2023/06/13 10:19:40;;;;;;;16.10;15.40;;;28.00;37.30;;;;;;4952174;28;20456;-75
2023/06/13 10:22:08;;;;;;;16.47;15.63;;;28.00;37.20;;;;;;4951978;28;20826;-75
2023/06/13 10:24:37;;;;;;;16.87;15.67;;;28.30;36.90;;;;;;4952001;28;20468;-75
2023/06/13 10:27:07;;;;;;;15.70;15.00;;;28.20;36.70;;;;;;4951629;28;20456;-76
2023/06/13 10:29:58;;;;;;;15.27;14.77;;;28.50;36.20;;;;;;4951410;28;20467;-75
2023/06/13 10:32:43;;;;;;;16.60;15.80;;;29.30;36.00;;;;;;4951727;28;20560;-75
2023/06/13 10:35:36;;;;;;;16.53;15.83;;;29.30;34.60;;;;;;4951687;28;20460;-75
2023/06/13 10:38:22;;;;;;;17.20;16.30;;;28.80;34.90;;;;;;4951818;28;20532;-75
2023/06/13 10:41:35;;;;;;;16.87;16.17;;;28.30;35.90;;;;;;4951527;28;20550;-74
2023/06/13 10:44:08;;;;;;;17.23;16.10;;;28.40;35.60;;;;;;4951672;28;20452;-75
2023/06/13 10:46:35;;;;;;;16.37;15.67;;;28.50;36.10;;;;;;4951795;28;20520;-74
2023/06/13 10:49:02;;;;;;;16.60;15.90;;;29.30;35.60;;;;;;4951281;28;20630;-76
2023/06/13 10:51:31;;;;;;;16.87;16.13;;;29.60;34.60;;;;;;4951328;28;20492;-74
2023/06/13 10:54:07;;;;;;;16.27;15.50;;;30.10;34.50;;;;;;4951225;28;20489;-74
2023/06/13 10:56:39;;;;;;;16.17;15.27;;;29.60;34.60;;;;;;4951653;28;20463;-76
2023/06/13 10:59:07;;;;;;;16.53;15.77;;;29.50;35.20;;;;;;4951420;28;20452;-75
2023/06/13 11:01:35;;;;;;;15.70;15.10;;;30.00;35.20;;;;;;4951325;28;20452;-75
2023/06/13 11:04:11;;;;;;;16.00;15.40;;;30.20;34.80;;;;;;4955219;28;20559;-74
2023/06/13 11:06:38;;;;;;;16.10;15.40;;;30.20;34.10;;;;;;4955697;28;20456;-75
2023/06/13 11:09:26;;;;;;;16.37;15.67;;;29.70;34.50;;;;;;4955159;28;20499;-75
2023/06/13 11:11:55;;;;;;;16.87;16.17;;;29.70;32.90;;;;;;4953634;28;20523;-74
2023/06/13 11:14:25;;;;;;;17.37;16.47;;;29.10;32.90;;;;;;4955160;28;20543;-76
2023/06/13 11:16:52;;;;;;;16.73;16.03;;;29.00;33.60;;;;;;4955197;28;20445;-76
2023/06/13 11:19:22;;;;;;;17.60;16.50;;;29.10;33.60;;;;;;4955176;28;20443;-76
2023/06/13 11:21:53;;;;;;;17.20;16.50;;;29.20;32.80;;;;;;4955069;28;20456;-76
2023/06/13 11:24:20;;;;;;;16.80;15.90;;;29.20;34.00;;;;;;4954112;28;20455;-74
2023/06/13 11:26:47;;;;;;;16.83;16.17;;;30.10;33.60;;;;;;4954535;28;20463;-76
2023/06/13 11:29:15;;;;;;;18.60;17.60;;;30.30;32.70;;;;;;4955034;28;20488;-76
2023/06/13 11:31:42;;;;;;;16.50;15.20;;;30.10;31.90;;;;;;4955204;28;20543;-76
2023/06/13 11:34:17;;;;;;;17.30;16.50;;;29.90;32.70;;;;;;4954972;28;20482;-73
2023/06/13 11:36:46;;;;;;;16.80;16.10;;;30.20;32.50;;;;;;4954785;28;20451;-76
2023/06/13 11:39:14;;;;;;;17.13;16.20;;;30.00;33.30;;;;;;4954645;28;20452;-76
2023/06/13 11:41:42;;;;;;;18.33;17.53;;;30.20;32.40;;;;;;4954830;28;20453;-75
2023/06/13 11:44:10;;;;;;;17.27;16.37;;;30.40;32.70;;;;;;4955202;28;20460;-75
2023/06/13 11:46:44;;;;;;;17.17;16.40;;;30.10;33.10;;;;;;4954826;28;20904;-75
2023/06/13 11:49:14;;;;;;;19.17;17.33;;;29.60;33.20;;;;;;4954233;28;20495;-75
2023/06/13 11:51:41;;;;;;;17.23;16.40;;;30.00;33.10;;;;;;4954492;28;20865;-76
2023/06/13 11:54:09;;;;;;;18.10;17.00;;;30.10;32.30;;;;;;4954784;28;20479;-75
2023/06/13 11:56:40;;;;;;;17.07;16.33;;;30.30;32.90;;;;;;4954316;28;20815;-76
2023/06/13 11:59:15;;;;;;;18.47;17.63;;;30.30;33.40;;;;;;4954413;28;20449;-76
2023/06/13 12:01:43;;;;;;;17.30;16.40;;;30.60;32.00;;;;;;4953996;28;20805;-74
2023/06/13 12:04:11;;;;;;;17.50;16.33;;;30.20;33.00;;;;;;4954166;28;20791;-74
2023/06/13 12:06:38;;;;;;;16.80;16.10;;;30.40;32.60;;;;;;4954299;28;20467;-77
2023/06/13 12:09:06;;;;;;;18.50;17.40;;;30.50;33.00;;;;;;4953893;28;21022;-75
2023/06/13 12:11:33;;;;;;;17.10;16.30;;;30.20;33.50;;;;;;4953836;28;20902;-75
2023/06/13 12:14:01;;;;;;;16.70;16.00;;;30.60;32.60;;;;;;4953297;28;20459;-74
2023/06/13 12:16:29;;;;;;;17.80;17.03;;;31.40;32.70;;;;;;4953472;28;20445;-75
2023/06/13 12:18:59;;;;;;;17.37;16.67;;;31.40;31.40;;;;;;4953256;28;20543;-75
2023/06/13 12:21:28;;;;;;;18.20;17.40;;;31.00;31.90;;;;;;4953837;28;20947;-74
2023/06/13 12:23:55;;;;;;;17.80;16.97;;;31.10;31.70;;;;;;4953977;28;20456;-75
2023/06/13 12:26:22;;;;;;;18.60;17.70;;;31.80;30.80;;;;;;4953915;28;20492;-75
2023/06/13 12:28:49;;;;;;;17.10;16.20;;;31.60;31.20;;;;;;4953165;28;20503;-77
2023/06/13 12:31:15;;;;;;;17.53;16.47;;;31.00;31.60;;;;;;4953565;28;20849;-74
2023/06/13 12:33:43;;;;;;;16.10;15.50;;;30.90;31.70;;;;;;4953534;28;20452;-76
2023/06/13 12:36:11;;;;;;;16.77;15.83;;;30.20;31.80;;;;;;4953923;28;20546;-76
2023/06/13 12:38:44;;;;;;;16.50;15.70;;;30.20;31.70;;;;;;4953765;28;20453;-76
2023/06/13 12:41:14;;;;;;;16.03;15.10;;;30.00;31.90;;;;;;4953912;28;20468;-74
2023/06/13 12:43:45;;;;;;;15.67;15.00;;;29.90;32.60;;;;;;4953728;28;20535;-76
2023/06/13 12:46:13;;;;;;;17.17;16.47;;;30.30;31.20;;;;;;4953495;28;20460;-76
2023/06/13 12:48:40;;;;;;;15.93;15.13;;;30.60;31.60;;;;;;4953160;28;20488;-76
2023/06/13 12:51:07;;;;;;;17.60;16.60;;;30.60;32.10;;;;;;4953085;28;20484;-76
2023/06/13 12:53:35;;;;;;;17.50;16.50;;;31.00;32.20;;;;;;4953250;28;20788;-76
2023/06/13 12:56:03;;;;;;;16.63;15.80;;;31.20;32.30;;;;;;4953138;28;20791;-76
2023/06/13 12:58:32;;;;;;;16.90;16.10;;;31.30;30.50;;;;;;4953303;28;20832;-74
2023/06/13 13:01:00;;;;;;;17.00;16.00;;;30.60;31.00;;;;;;4953019;28;20467;-75
2023/06/13 13:03:27;;;;;;;16.43;15.30;;;30.40;31.10;;;;;;4953040;28;20456;-76
2023/06/13 13:05:54;;;;;;;17.00;16.20;;;30.30;31.90;;;;;;4953177;28;20475;-76
2023/06/13 13:08:22;;;;;;;16.43;15.73;;;30.30;31.00;;;;;;4952865;28;20484;-76
2023/06/13 13:10:50;;;;;;;16.40;15.40;;;30.00;31.80;;;;;;4952855;28;20954;-74
2023/06/13 13:13:17;;;;;;;16.60;15.80;;;30.00;32.40;;;;;;4952911;28;20464;-75
2023/06/13 13:15:45;;;;;;;17.53;16.60;;;30.00;31.90;;;;;;4952824;28;20456;-75
2023/06/13 13:18:11;;;;;;;16.40;15.60;;;29.90;32.10;;;;;;4952666;28;20539;-74
2023/06/13 13:20:38;;;;;;;15.77;14.73;;;30.20;31.40;;;;;;4952803;28;20496;-75
2023/06/13 13:23:05;;;;;;;16.70;15.77;;;30.40;31.40;;;;;;4952432;29;20493;-75
2023/06/13 13:25:32;;;;;;;16.30;15.40;;;30.50;31.50;;;;;;4951486;28;20467;-76
2023/06/13 13:28:00;;;;;;;16.63;15.93;;;30.40;31.70;;;;;;4952248;28;20488;-75
2023/06/13 13:30:28;;;;;;;17.10;16.30;;;30.40;30.80;;;;;;4952718;28;20460;-75
2023/06/13 13:32:54;;;;;;;17.57;16.50;;;30.00;30.70;;;;;;4952634;28;20822;-75
2023/06/13 13:35:21;;;;;;;16.53;15.83;;;29.90;30.50;;;;;;4952902;28;20774;-75
2023/06/13 13:37:49;;;;;;;18.20;17.03;;;29.70;30.30;;;;;;4952875;28;20456;-75
2023/06/13 13:40:16;;;;;;;16.80;16.00;;;29.80;30.90;;;;;;4952336;28;20484;-76
2023/06/13 13:42:43;;;;;;;16.43;15.63;;;30.60;30.70;;;;;;4952391;28;20460;-75
2023/06/13 13:45:12;;;;;;;17.33;16.30;;;31.00;30.90;;;;;;4952543;28;20448;-74
2023/06/13 13:47:38;;;;;;;17.40;16.50;;;30.40;31.60;;;;;;4952756;28;20487;-75
2023/06/13 13:50:06;;;;;;;17.20;16.30;;;30.10;31.70;;;;;;4952132;28;20500;-75
2023/06/13 13:52:33;;;;;;;17.00;15.90;;;30.70;31.40;;;;;;4952362;28;21001;-76
2023/06/13 13:55:00;;;;;;;17.50;16.50;;;30.70;31.70;;;;;;4952377;28;20453;-75
2023/06/13 13:57:27;;;;;;;19.00;17.90;;;30.20;31.80;;;;;;4952329;28;20534;-75
2023/06/13 13:59:54;;;;;;;17.77;17.07;;;30.00;32.70;;;;;;4950391;28;20468;-74
2023/06/13 14:02:22;;;;;;;17.53;16.80;;;30.20;32.80;;;;;;4933280;29;20951;-74
2023/06/13 14:04:49;;;;;;;17.30;16.30;;;30.30;31.70;;;;;;4933426;29;20456;-75
2023/06/13 14:07:16;;;;;;;17.00;16.20;;;30.10;31.60;;;;;;4935823;29;20453;-75
2023/06/13 14:09:42;;;;;;;18.67;17.37;;;30.80;31.50;;;;;;4939928;28;20554;-74
2023/06/13 14:12:10;;;;;;;17.43;16.70;;;30.80;29.50;;;;;;4933158;29;20828;-74
2023/06/13 14:14:38;;;;;;;17.03;16.23;;;30.30;30.40;;;;;;4933158;29;20476;-75
2023/06/13 14:17:05;;;;;;;17.30;16.37;;;29.90;30.60;;;;;;4927473;29;20474;-74
2023/06/13 14:19:34;;;;;;;16.87;16.13;;;29.50;30.30;;;;;;4933031;29;20468;-74
2023/06/13 14:22:02;;;;;;;16.40;15.50;;;29.70;29.80;;;;;;4933097;29;20454;-76
2023/06/13 14:24:28;;;;;;;16.60;15.53;;;30.00;30.00;;;;;;4932748;29;20516;-75
2023/06/13 14:26:56;;;;;;;16.93;16.13;;;30.00;30.60;;;;;;4932750;29;20457;-75
2023/06/13 14:29:22;;;;;;;14.77;13.97;;;30.10;31.30;;;;;;4932578;29;20607;-75
2023/06/13 14:31:49;;;;;;;16.87;15.97;;;30.30;31.30;;;;;;4932804;29;20449;-74
2023/06/13 14:34:17;;;;;;;15.70;14.90;;;30.40;31.30;;;;;;4932519;29;20532;-74
2023/06/13 14:36:46;;;;;;;16.47;15.77;;;30.20;29.80;;;;;;4934589;29;20464;-74
2023/06/13 14:39:14;;;;;;;17.37;16.47;;;29.80;29.30;;;;;;4939009;29;20441;-76
2023/06/13 14:41:41;;;;;;;17.03;16.03;;;29.30;29.80;;;;;;4941377;28;20444;-75
2023/06/13 14:44:07;;;;;;;16.40;15.50;;;29.30;29.80;;;;;;4942722;29;20449;-75
2023/06/13 14:46:34;;;;;;;17.53;16.60;;;29.30;29.80;;;;;;4941431;29;20450;-74
2023/06/13 14:49:01;;;;;;;17.60;16.50;;;29.30;30.20;;;;;;4941309;28;20512;-75
2023/06/13 14:51:28;;;;;;;16.83;15.97;;;29.80;30.80;;;;;;4942457;29;20503;-74
2023/06/13 14:53:56;;;;;;;16.23;15.50;;;29.50;31.50;;;;;;4941232;29;20469;-76
2023/06/13 14:56:23;;;;;;;17.40;16.60;;;29.50;31.40;;;;;;4941317;28;20452;-75
2023/06/13 14:58:50;;;;;;;17.70;16.50;;;29.50;31.30;;;;;;4942616;29;20962;-75
2023/06/13 15:01:17;;;;;;;15.93;15.23;;;29.30;30.70;;;;;;4932599;29;21228;-75
2023/06/13 15:03:45;;;;;;;15.93;15.13;;;28.90;31.30;;;;;;4932248;29;20524;-75
2023/06/13 15:06:13;;;;;;;16.20;15.30;;;28.00;31.30;;;;;;4932390;29;20863;-75
2023/06/13 15:08:40;;;;;;;16.43;15.07;;;27.60;31.30;;;;;;4937092;29;20499;-74
2023/06/13 15:11:09;;;;;;;14.67;14.07;;;27.80;31.50;;;;;;4952122;28;20461;-75
2023/06/13 15:13:36;;;;;;;14.70;14.00;;;27.90;31.10;;;;;;4951944;28;20950;-75
2023/06/13 15:16:03;;;;;;;15.73;15.03;;;27.90;31.30;;;;;;4951621;28;20459;-74
2023/06/13 15:18:33;;;;;;;17.27;16.13;;;27.50;31.30;;;;;;4951621;28;20463;-74
2023/06/13 15:21:00;;;;;;;16.83;15.87;;;27.40;31.90;;;;;;4951752;28;20683;-75
2023/06/13 15:23:28;;;;;;;15.80;15.00;;;27.10;32.30;;;;;;4951671;28;20455;-77
2023/06/13 15:25:54;;;;;;;16.43;15.57;;;26.80;32.90;;;;;;4951596;28;20666;-76